Jones Mills, Pennsylvania
Current Conditions -  °F | °C
As of 11:45 AM on Friday 28 Nov 2014 (Local Time) from KLBE Reporting Station
Overcast Overcast  
Wind Chill: 16°   Ceiling: 3700
Heat Index: 27°   Visibility: 15mi
Dew Point: 16°   Wind: 12mph
Humidity: 64%   Direction: 290°WNW
Pressure: 30.32"   Gusts: NA
Location:  40.09°N, 79.34°W
Report Text: KLBE 281645Z 29010KT 15SM OVC037 M03/M09 A3032
Loading
Personal Weather Stations






























Interactive Weather Map New forecast layout! Learn more

10-Day Weather Forecast

Advertisements
Track Severe Weather on mobile